createdAt,value
2022-12-31T00:07:20.622Z,13.4
2022-12-31T00:17:21.288Z,13.4
2022-12-31T00:27:22.243Z,13.4
2022-12-31T00:37:22.546Z,13.3
2022-12-31T00:47:22.872Z,12.9
2022-12-31T00:57:23.729Z,12.7
2022-12-31T01:07:24.461Z,12.5
2022-12-31T01:17:25.383Z,12.5
2022-12-31T01:27:25.894Z,12.4
2022-12-31T01:47:27.230Z,12.6
2022-12-31T01:57:27.728Z,12.9
2022-12-31T02:07:28.329Z,13
2022-12-31T02:17:28.551Z,13.2
2022-12-31T02:27:29.397Z,13.7
2022-12-31T02:37:29.859Z,14.3
2022-12-31T02:47:30.097Z,14.7
2022-12-31T02:57:30.761Z,14.7
2022-12-31T03:07:31.335Z,14.8
2022-12-31T03:17:31.804Z,15.1
2022-12-31T03:27:31.917Z,14.8
2022-12-31T03:37:32.689Z,14.5
2022-12-31T03:47:32.922Z,14.5
2022-12-31T03:57:33.092Z,14.8
2022-12-31T04:07:33.647Z,15.2
2022-12-31T04:37:35.251Z,15.6
2022-12-31T04:47:35.952Z,15
2022-12-31T04:57:36.105Z,15.4
2022-12-31T05:07:36.760Z,15.9
2022-12-31T05:17:37.794Z,15.9
2022-12-31T05:27:38.698Z,16.2
2022-12-31T05:37:39.708Z,16.3
2022-12-31T05:47:39.789Z,16.3
2022-12-31T05:57:40.215Z,16.4
2022-12-31T06:07:40.789Z,16.6
2022-12-31T06:17:41.515Z,16.5
2022-12-31T06:27:41.938Z,16.6
2022-12-31T06:37:42.232Z,16.6
2022-12-31T06:47:42.389Z,16.5
2022-12-31T06:57:42.741Z,16.6
2022-12-31T07:07:43.048Z,16.6
2022-12-31T07:17:43.274Z,16.6
2022-12-31T07:27:43.501Z,16.6
2022-12-31T07:37:43.933Z,16.7
2022-12-31T07:47:44.235Z,16.6
2022-12-31T07:48:06.142Z,16.6
2022-12-31T07:57:50.657Z,16.8
2022-12-31T08:07:51.698Z,16.8
2022-12-31T08:27:52.675Z,17
2022-12-31T08:37:53.039Z,17.1
2022-12-31T08:47:59.614Z,17.1
2022-12-31T08:57:54.476Z,17.1
2022-12-31T09:07:55.571Z,17.1
2022-12-31T09:17:55.939Z,17.1
2022-12-31T09:27:56.665Z,17.2
2022-12-31T09:37:57.486Z,17.2
2022-12-31T09:47:58.388Z,17.2
2022-12-31T09:57:59.395Z,17.2
2022-12-31T10:07:59.815Z,17.2
2022-12-31T10:18:00.743Z,17.2
2022-12-31T10:28:01.295Z,17.2
2022-12-31T10:48:02.623Z,17.4
2022-12-31T10:58:04.395Z,17.4
2022-12-31T11:08:04.236Z,17.5
2022-12-31T11:18:04.764Z,17.5
2022-12-31T11:28:05.174Z,17.5
2022-12-31T11:38:05.741Z,17.5
2022-12-31T11:48:30.901Z,17.4
2022-12-31T11:58:07.085Z,17.5
2022-12-31T12:08:08.091Z,17.5
2022-12-31T12:18:08.703Z,17.5
2022-12-31T12:28:09.401Z,17.3
2022-12-31T12:38:09.628Z,16.7
2022-12-31T12:48:10.238Z,16.3
2022-12-31T12:58:12.892Z,16.1
2022-12-31T13:08:11.256Z,16.2
2022-12-31T13:18:12.175Z,16.4
2022-12-31T13:28:12.623Z,16.5
2022-12-31T13:38:13.437Z,16.7
2022-12-31T13:48:13.822Z,16.7
2022-12-31T13:58:14.806Z,16.9
2022-12-31T14:08:15.025Z,16.9
2022-12-31T14:18:15.635Z,16.7
2022-12-31T14:28:16.535Z,16.8
2022-12-31T14:38:17.394Z,16.8
2022-12-31T14:48:21.796Z,16.7
2022-12-31T14:58:28.001Z,16.6
2022-12-31T15:08:19.608Z,16.3
2022-12-31T15:18:20.484Z,16.1
2022-12-31T15:28:21.482Z,16
2022-12-31T15:38:21.726Z,15.9
2022-12-31T15:48:21.780Z,16
2022-12-31T15:58:22.443Z,16.3
2022-12-31T16:08:23.153Z,16.4
2022-12-31T16:18:23.787Z,16.5
2022-12-31T16:28:24.711Z,16.7
2022-12-31T16:38:25.118Z,16.7
2022-12-31T16:48:25.863Z,16.6
2022-12-31T16:58:26.712Z,16.5
2022-12-31T17:08:27.426Z,16.4
2022-12-31T17:18:27.971Z,16.3
2022-12-31T17:28:28.994Z,16.2
2022-12-31T17:38:29.284Z,16.2
2022-12-31T17:48:29.353Z,16.2
2022-12-31T17:58:30.017Z,16.3
2022-12-31T18:08:30.759Z,16.3
2022-12-31T18:18:31.068Z,16.2
2022-12-31T18:28:31.999Z,16.2
2022-12-31T18:38:32.896Z,16.1
2022-12-31T18:48:33.373Z,16.1
2022-12-31T18:58:33.880Z,16.2
2022-12-31T19:08:34.622Z,16.2
2022-12-31T19:18:34.955Z,16.4
2022-12-31T19:28:35.389Z,16.3
2022-12-31T19:38:35.815Z,16.3
2022-12-31T19:48:36.341Z,16.3
2022-12-31T19:58:37.362Z,16.3
2022-12-31T20:08:37.738Z,16.3
2022-12-31T20:18:38.674Z,16.3
2022-12-31T20:28:39.524Z,16.4
2022-12-31T20:38:40.487Z,16.5
2022-12-31T20:48:41.039Z,16.6
2022-12-31T20:58:41.679Z,16.5
2022-12-31T21:08:41.805Z,16.5
2022-12-31T21:18:42.274Z,16.8
2022-12-31T21:28:42.987Z,16.7
2022-12-31T21:38:43.208Z,16.7
2022-12-31T21:48:43.787Z,16.6
2022-12-31T22:08:44.825Z,16.7
2022-12-31T22:18:45.733Z,16.7
2022-12-31T22:28:45.855Z,16.6
2022-12-31T22:38:46.275Z,16.7
2022-12-31T22:48:46.453Z,16.9
2022-12-31T22:58:47.226Z,16.9
2022-12-31T23:08:47.806Z,16.7
2022-12-31T23:18:48.466Z,16.8
2022-12-31T23:28:49.360Z,16.8
2022-12-31T23:38:50.097Z,16.8
2022-12-31T23:48:50.528Z,16.8
2022-12-31T23:58:50.628Z,17
